sensor_id;sensor_type;location;lat;lon;timestamp;P1;durP1;ratioP1;P2;durP2;ratioP2
32172;SDS011;18679;45.190;5.722;2023-02-28T00:02:48;10.07;;;4.15;;
32172;SDS011;18679;45.190;5.722;2023-02-28T00:05:49;9.00;;;4.32;;
32172;SDS011;18679;45.190;5.722;2023-02-28T00:08:51;8.60;;;3.85;;
32172;SDS011;18679;45.190;5.722;2023-02-28T00:11:52;6.45;;;3.83;;
32172;SDS011;18679;45.190;5.722;2023-02-28T00:14:53;7.05;;;4.10;;
32172;SDS011;18679;45.190;5.722;2023-02-28T00:17:54;10.20;;;4.90;;
32172;SDS011;18679;45.190;5.722;2023-02-28T00:20:55;8.20;;;4.85;;
32172;SDS011;18679;45.190;5.722;2023-02-28T00:23:57;10.18;;;5.07;;
32172;SDS011;18679;45.190;5.722;2023-02-28T00:26:58;9.57;;;4.60;;
32172;SDS011;18679;45.190;5.722;2023-02-28T00:29:59;8.60;;;4.85;;
32172;SDS011;18679;45.190;5.722;2023-02-28T00:33:01;9.10;;;4.82;;
32172;SDS011;18679;45.190;5.722;2023-02-28T00:36:06;8.52;;;4.38;;
32172;SDS011;18679;45.190;5.722;2023-02-28T00:39:10;10.20;;;5.07;;
32172;SDS011;18679;45.190;5.722;2023-02-28T00:42:11;8.00;;;4.28;;
32172;SDS011;18679;45.190;5.722;2023-02-28T00:45:13;6.63;;;4.18;;
32172;SDS011;18679;45.190;5.722;2023-02-28T00:48:14;9.70;;;4.70;;
32172;SDS011;18679;45.190;5.722;2023-02-28T00:51:16;7.30;;;4.45;;
32172;SDS011;18679;45.190;5.722;2023-02-28T00:54:17;9.63;;;4.50;;
32172;SDS011;18679;45.190;5.722;2023-02-28T00:57:21;7.35;;;4.57;;
32172;SDS011;18679;45.190;5.722;2023-02-28T01:00:22;8.27;;;4.53;;
32172;SDS011;18679;45.190;5.722;2023-02-28T01:03:24;11.05;;;4.70;;
32172;SDS011;18679;45.190;5.722;2023-02-28T01:06:25;9.73;;;5.45;;
32172;SDS011;18679;45.190;5.722;2023-02-28T01:09:26;10.15;;;5.03;;
32172;SDS011;18679;45.190;5.722;2023-02-28T01:12:27;6.50;;;4.30;;
32172;SDS011;18679;45.190;5.722;2023-02-28T01:15:28;9.20;;;4.65;;
32172;SDS011;18679;45.190;5.722;2023-02-28T01:18:29;7.80;;;4.38;;
32172;SDS011;18679;45.190;5.722;2023-02-28T01:21:30;7.80;;;4.32;;
32172;SDS011;18679;45.190;5.722;2023-02-28T01:24:32;9.35;;;4.05;;
32172;SDS011;18679;45.190;5.722;2023-02-28T01:27:33;10.02;;;4.47;;
32172;SDS011;18679;45.190;5.722;2023-02-28T01:30:34;7.47;;;4.25;;
32172;SDS011;18679;45.190;5.722;2023-02-28T01:33:36;9.13;;;5.03;;
32172;SDS011;18679;45.190;5.722;2023-02-28T01:36:38;11.18;;;5.03;;
32172;SDS011;18679;45.190;5.722;2023-02-28T01:39:39;7.22;;;4.47;;
32172;SDS011;18679;45.190;5.722;2023-02-28T01:42:40;8.45;;;4.88;;
32172;SDS011;18679;45.190;5.722;2023-02-28T01:45:41;6.90;;;4.10;;
32172;SDS011;18679;45.190;5.722;2023-02-28T01:48:46;9.45;;;4.68;;
32172;SDS011;18679;45.190;5.722;2023-02-28T01:51:53;11.60;;;5.53;;
32172;SDS011;18679;45.190;5.722;2023-02-28T01:54:58;8.85;;;4.72;;
32172;SDS011;18679;45.190;5.722;2023-02-28T01:58:02;6.85;;;4.25;;
32172;SDS011;18679;45.190;5.722;2023-02-28T02:01:06;10.15;;;4.65;;
32172;SDS011;18679;45.190;5.722;2023-02-28T02:04:07;11.63;;;4.80;;
32172;SDS011;18679;45.190;5.722;2023-02-28T02:07:08;9.00;;;4.45;;
32172;SDS011;18679;45.190;5.722;2023-02-28T02:10:18;9.85;;;4.75;;
32172;SDS011;18679;45.190;5.722;2023-02-28T02:16:49;14.15;;;4.95;;
32172;SDS011;18679;45.190;5.722;2023-02-28T02:27:20;8.27;;;4.75;;
32172;SDS011;18679;45.190;5.722;2023-02-28T02:37:48;13.90;;;4.40;;
32172;SDS011;18679;45.190;5.722;2023-02-28T02:41:04;7.40;;;4.15;;
32172;SDS011;18679;45.190;5.722;2023-02-28T02:44:11;11.00;;;5.05;;
32172;SDS011;18679;45.190;5.722;2023-02-28T02:47:40;8.48;;;3.85;;
32172;SDS011;18679;45.190;5.722;2023-02-28T02:50:44;22.58;;;4.97;;
32172;SDS011;18679;45.190;5.722;2023-02-28T02:53:49;13.35;;;5.57;;
32172;SDS011;18679;45.190;5.722;2023-02-28T02:57:05;10.73;;;5.37;;
32172;SDS011;18679;45.190;5.722;2023-02-28T03:00:10;14.35;;;6.43;;
32172;SDS011;18679;45.190;5.722;2023-02-28T03:03:13;10.98;;;4.75;;
32172;SDS011;18679;45.190;5.722;2023-02-28T03:06:17;9.52;;;4.82;;
32172;SDS011;18679;45.190;5.722;2023-02-28T03:09:19;12.75;;;5.43;;
32172;SDS011;18679;45.190;5.722;2023-02-28T03:12:20;17.52;;;5.22;;
32172;SDS011;18679;45.190;5.722;2023-02-28T03:15:24;8.68;;;4.75;;
32172;SDS011;18679;45.190;5.722;2023-02-28T03:18:36;18.35;;;5.00;;
32172;SDS011;18679;45.190;5.722;2023-02-28T03:38:33;8.30;;;4.50;;
32172;SDS011;18679;45.190;5.722;2023-02-28T03:44:58;10.52;;;5.43;;
32172;SDS011;18679;45.190;5.722;2023-02-28T03:51:22;11.35;;;5.05;;
32172;SDS011;18679;45.190;5.722;2023-02-28T03:54:27;10.68;;;5.68;;
32172;SDS011;18679;45.190;5.722;2023-02-28T04:00:56;10.45;;;4.93;;
32172;SDS011;18679;45.190;5.722;2023-02-28T04:04:18;14.02;;;6.30;;
32172;SDS011;18679;45.190;5.722;2023-02-28T04:07:19;13.48;;;5.68;;
32172;SDS011;18679;45.190;5.722;2023-02-28T04:10:21;12.70;;;5.70;;
32172;SDS011;18679;45.190;5.722;2023-02-28T04:13:22;11.85;;;5.53;;
32172;SDS011;18679;45.190;5.722;2023-02-28T04:16:23;12.77;;;5.60;;
32172;SDS011;18679;45.190;5.722;2023-02-28T04:19:24;11.50;;;5.57;;
32172;SDS011;18679;45.190;5.722;2023-02-28T04:22:25;8.43;;;5.55;;
32172;SDS011;18679;45.190;5.722;2023-02-28T04:25:26;10.75;;;6.13;;
32172;SDS011;18679;45.190;5.722;2023-02-28T04:28:28;11.60;;;5.80;;
32172;SDS011;18679;45.190;5.722;2023-02-28T04:31:28;11.73;;;5.50;;
32172;SDS011;18679;45.190;5.722;2023-02-28T04:34:30;10.63;;;5.05;;
32172;SDS011;18679;45.190;5.722;2023-02-28T04:37:32;12.23;;;5.22;;
32172;SDS011;18679;45.190;5.722;2023-02-28T04:40:35;8.82;;;5.28;;
32172;SDS011;18679;45.190;5.722;2023-02-28T04:43:36;10.80;;;5.60;;
32172;SDS011;18679;45.190;5.722;2023-02-28T04:46:37;9.95;;;4.97;;
32172;SDS011;18679;45.190;5.722;2023-02-28T04:49:38;13.95;;;5.57;;
32172;SDS011;18679;45.190;5.722;2023-02-28T04:52:41;9.40;;;5.05;;
32172;SDS011;18679;45.190;5.722;2023-02-28T04:55:42;9.82;;;5.53;;
32172;SDS011;18679;45.190;5.722;2023-02-28T04:58:44;8.93;;;5.63;;
32172;SDS011;18679;45.190;5.722;2023-02-28T05:01:46;11.02;;;5.38;;
32172;SDS011;18679;45.190;5.722;2023-02-28T05:04:48;9.68;;;5.35;;
32172;SDS011;18679;45.190;5.722;2023-02-28T05:07:49;9.52;;;5.18;;
32172;SDS011;18679;45.190;5.722;2023-02-28T05:10:50;12.45;;;5.15;;
32172;SDS011;18679;45.190;5.722;2023-02-28T05:13:51;9.60;;;5.40;;
32172;SDS011;18679;45.190;5.722;2023-02-28T05:16:53;11.60;;;5.03;;
32172;SDS011;18679;45.190;5.722;2023-02-28T05:19:55;9.85;;;5.80;;
32172;SDS011;18679;45.190;5.722;2023-02-28T05:22:56;12.30;;;6.85;;
32172;SDS011;18679;45.190;5.722;2023-02-28T05:25:58;12.10;;;5.30;;
32172;SDS011;18679;45.190;5.722;2023-02-28T05:28:59;14.48;;;5.68;;
32172;SDS011;18679;45.190;5.722;2023-02-28T05:32:00;8.30;;;5.05;;
32172;SDS011;18679;45.190;5.722;2023-02-28T05:35:02;7.72;;;5.00;;
32172;SDS011;18679;45.190;5.722;2023-02-28T05:38:03;14.05;;;5.88;;
32172;SDS011;18679;45.190;5.722;2023-02-28T05:41:05;13.73;;;5.70;;
32172;SDS011;18679;45.190;5.722;2023-02-28T05:44:07;13.35;;;6.35;;
32172;SDS011;18679;45.190;5.722;2023-02-28T05:47:08;12.65;;;5.57;;
32172;SDS011;18679;45.190;5.722;2023-02-28T05:50:09;12.73;;;6.40;;
32172;SDS011;18679;45.190;5.722;2023-02-28T05:53:11;12.15;;;5.50;;
32172;SDS011;18679;45.190;5.722;2023-02-28T05:56:12;10.88;;;5.82;;
32172;SDS011;18679;45.190;5.722;2023-02-28T05:59:13;24.08;;;5.38;;
32172;SDS011;18679;45.190;5.722;2023-02-28T06:02:15;10.70;;;5.50;;
32172;SDS011;18679;45.190;5.722;2023-02-28T06:05:17;13.98;;;5.60;;
32172;SDS011;18679;45.190;5.722;2023-02-28T06:08:19;8.82;;;5.80;;
32172;SDS011;18679;45.190;5.722;2023-02-28T06:11:20;17.13;;;5.18;;
32172;SDS011;18679;45.190;5.722;2023-02-28T06:14:21;12.15;;;5.72;;
32172;SDS011;18679;45.190;5.722;2023-02-28T06:17:22;12.63;;;5.53;;
32172;SDS011;18679;45.190;5.722;2023-02-28T06:20:23;14.68;;;5.70;;
32172;SDS011;18679;45.190;5.722;2023-02-28T06:23:29;15.18;;;5.78;;
32172;SDS011;18679;45.190;5.722;2023-02-28T06:26:30;13.38;;;4.95;;
32172;SDS011;18679;45.190;5.722;2023-02-28T06:29:32;11.75;;;5.45;;
32172;SDS011;18679;45.190;5.722;2023-02-28T06:32:34;9.65;;;5.50;;
32172;SDS011;18679;45.190;5.722;2023-02-28T06:35:36;12.00;;;6.18;;
32172;SDS011;18679;45.190;5.722;2023-02-28T06:38:37;13.50;;;5.22;;
32172;SDS011;18679;45.190;5.722;2023-02-28T06:41:38;12.60;;;5.97;;
32172;SDS011;18679;45.190;5.722;2023-02-28T06:44:40;11.13;;;5.80;;
32172;SDS011;18679;45.190;5.722;2023-02-28T06:47:43;12.88;;;5.68;;
32172;SDS011;18679;45.190;5.722;2023-02-28T06:50:44;11.65;;;6.00;;
32172;SDS011;18679;45.190;5.722;2023-02-28T06:53:45;11.02;;;5.82;;
32172;SDS011;18679;45.190;5.722;2023-02-28T06:56:46;9.48;;;5.30;;
32172;SDS011;18679;45.190;5.722;2023-02-28T06:59:47;11.05;;;5.47;;
32172;SDS011;18679;45.190;5.722;2023-02-28T07:02:50;15.68;;;6.15;;
32172;SDS011;18679;45.190;5.722;2023-02-28T07:05:51;10.60;;;5.63;;
32172;SDS011;18679;45.190;5.722;2023-02-28T07:08:52;9.93;;;5.68;;
32172;SDS011;18679;45.190;5.722;2023-02-28T07:11:54;11.52;;;5.50;;
32172;SDS011;18679;45.190;5.722;2023-02-28T07:14:55;13.23;;;5.78;;
32172;SDS011;18679;45.190;5.722;2023-02-28T07:17:57;12.68;;;6.03;;
32172;SDS011;18679;45.190;5.722;2023-02-28T07:20:58;10.73;;;5.00;;
32172;SDS011;18679;45.190;5.722;2023-02-28T07:24:01;8.35;;;5.28;;
32172;SDS011;18679;45.190;5.722;2023-02-28T07:27:02;12.02;;;6.22;;
32172;SDS011;18679;45.190;5.722;2023-02-28T07:30:04;10.90;;;5.90;;
32172;SDS011;18679;45.190;5.722;2023-02-28T07:33:05;11.73;;;5.45;;
32172;SDS011;18679;45.190;5.722;2023-02-28T07:36:08;11.27;;;5.53;;
32172;SDS011;18679;45.190;5.722;2023-02-28T07:39:15;13.90;;;6.20;;
32172;SDS011;18679;45.190;5.722;2023-02-28T07:42:16;16.13;;;6.30;;
32172;SDS011;18679;45.190;5.722;2023-02-28T07:45:18;15.48;;;5.70;;
32172;SDS011;18679;45.190;5.722;2023-02-28T07:48:19;11.95;;;6.15;;
32172;SDS011;18679;45.190;5.722;2023-02-28T07:51:21;14.45;;;7.47;;
32172;SDS011;18679;45.190;5.722;2023-02-28T07:54:23;14.07;;;5.38;;
32172;SDS011;18679;45.190;5.722;2023-02-28T07:57:24;12.10;;;6.78;;
32172;SDS011;18679;45.190;5.722;2023-02-28T08:00:25;10.63;;;5.40;;
32172;SDS011;18679;45.190;5.722;2023-02-28T08:03:26;11.57;;;6.32;;
32172;SDS011;18679;45.190;5.722;2023-02-28T08:06:27;13.07;;;6.20;;
32172;SDS011;18679;45.190;5.722;2023-02-28T08:09:28;12.07;;;5.45;;
32172;SDS011;18679;45.190;5.722;2023-02-28T08:12:30;11.85;;;5.28;;
32172;SDS011;18679;45.190;5.722;2023-02-28T08:15:32;18.30;;;5.57;;
32172;SDS011;18679;45.190;5.722;2023-02-28T08:18:32;10.45;;;5.35;;
32172;SDS011;18679;45.190;5.722;2023-02-28T08:21:34;13.40;;;5.05;;
32172;SDS011;18679;45.190;5.722;2023-02-28T08:24:35;11.82;;;5.70;;
32172;SDS011;18679;45.190;5.722;2023-02-28T08:27:36;15.20;;;7.15;;
32172;SDS011;18679;45.190;5.722;2023-02-28T08:30:37;12.90;;;5.50;;
32172;SDS011;18679;45.190;5.722;2023-02-28T08:33:41;17.48;;;6.15;;
32172;SDS011;18679;45.190;5.722;2023-02-28T08:36:42;18.02;;;6.75;;
32172;SDS011;18679;45.190;5.722;2023-02-28T08:39:45;16.30;;;5.88;;
32172;SDS011;18679;45.190;5.722;2023-02-28T08:42:46;13.23;;;6.57;;
32172;SDS011;18679;45.190;5.722;2023-02-28T08:45:50;13.82;;;5.88;;
32172;SDS011;18679;45.190;5.722;2023-02-28T08:48:56;10.85;;;5.15;;
32172;SDS011;18679;45.190;5.722;2023-02-28T08:52:01;16.70;;;6.10;;
32172;SDS011;18679;45.190;5.722;2023-02-28T08:55:02;13.88;;;7.10;;
32172;SDS011;18679;45.190;5.722;2023-02-28T08:58:03;13.13;;;6.97;;
32172;SDS011;18679;45.190;5.722;2023-02-28T09:01:14;12.65;;;6.68;;
32172;SDS011;18679;45.190;5.722;2023-02-28T09:04:18;9.70;;;5.55;;
32172;SDS011;18679;45.190;5.722;2023-02-28T09:07:19;14.75;;;6.95;;
32172;SDS011;18679;45.190;5.722;2023-02-28T09:10:20;13.10;;;6.38;;
32172;SDS011;18679;45.190;5.722;2023-02-28T09:13:21;12.75;;;7.00;;
32172;SDS011;18679;45.190;5.722;2023-02-28T09:16:23;16.98;;;7.15;;
32172;SDS011;18679;45.190;5.722;2023-02-28T09:19:24;15.88;;;7.50;;
32172;SDS011;18679;45.190;5.722;2023-02-28T09:22:25;9.57;;;5.50;;
32172;SDS011;18679;45.190;5.722;2023-02-28T09:25:25;11.98;;;6.57;;
32172;SDS011;18679;45.190;5.722;2023-02-28T09:28:26;16.40;;;6.95;;
32172;SDS011;18679;45.190;5.722;2023-02-28T09:31:28;13.25;;;6.53;;
32172;SDS011;18679;45.190;5.722;2023-02-28T09:34:29;13.93;;;6.78;;
32172;SDS011;18679;45.190;5.722;2023-02-28T09:37:33;22.00;;;7.32;;
32172;SDS011;18679;45.190;5.722;2023-02-28T09:40:39;14.38;;;7.53;;
32172;SDS011;18679;45.190;5.722;2023-02-28T09:44:10;15.35;;;6.97;;
32172;SDS011;18679;45.190;5.722;2023-02-28T09:47:30;15.48;;;6.60;;
32172;SDS011;18679;45.190;5.722;2023-02-28T09:50:40;14.98;;;6.95;;
32172;SDS011;18679;45.190;5.722;2023-02-28T09:53:46;23.10;;;6.82;;
32172;SDS011;18679;45.190;5.722;2023-02-28T09:56:53;14.43;;;7.50;;
32172;SDS011;18679;45.190;5.722;2023-02-28T10:00:13;15.45;;;7.55;;
32172;SDS011;18679;45.190;5.722;2023-02-28T10:06:53;15.35;;;6.32;;
32172;SDS011;18679;45.190;5.722;2023-02-28T10:09:55;15.18;;;7.20;;
32172;SDS011;18679;45.190;5.722;2023-02-28T10:12:59;16.48;;;7.07;;
32172;SDS011;18679;45.190;5.722;2023-02-28T10:16:21;16.40;;;7.80;;
32172;SDS011;18679;45.190;5.722;2023-02-28T10:19:32;15.35;;;6.65;;
32172;SDS011;18679;45.190;5.722;2023-02-28T10:22:53;14.07;;;6.97;;
32172;SDS011;18679;45.190;5.722;2023-02-28T10:26:05;16.83;;;6.30;;
32172;SDS011;18679;45.190;5.722;2023-02-28T10:29:13;12.27;;;7.13;;
32172;SDS011;18679;45.190;5.722;2023-02-28T10:32:19;12.57;;;7.20;;
32172;SDS011;18679;45.190;5.722;2023-02-28T10:35:23;9.82;;;4.93;;
32172;SDS011;18679;45.190;5.722;2023-02-28T10:38:27;12.70;;;7.15;;
32172;SDS011;18679;45.190;5.722;2023-02-28T10:41:41;13.15;;;6.75;;
32172;SDS011;18679;45.190;5.722;2023-02-28T10:44:46;12.43;;;7.32;;
32172;SDS011;18679;45.190;5.722;2023-02-28T10:51:18;13.07;;;7.00;;
32172;SDS011;18679;45.190;5.722;2023-02-28T10:58:24;12.57;;;7.00;;
32172;SDS011;18679;45.190;5.722;2023-02-28T11:04:37;16.63;;;7.18;;
32172;SDS011;18679;45.190;5.722;2023-02-28T11:07:50;17.85;;;7.85;;
32172;SDS011;18679;45.190;5.722;2023-02-28T11:10:56;17.67;;;8.50;;
32172;SDS011;18679;45.190;5.722;2023-02-28T11:14:04;15.95;;;7.63;;
32172;SDS011;18679;45.190;5.722;2023-02-28T11:17:19;13.25;;;7.15;;
32172;SDS011;18679;45.190;5.722;2023-02-28T11:20:23;13.18;;;7.45;;
32172;SDS011;18679;45.190;5.722;2023-02-28T11:23:27;14.27;;;7.35;;
32172;SDS011;18679;45.190;5.722;2023-02-28T11:26:44;16.92;;;7.85;;
32172;SDS011;18679;45.190;5.722;2023-02-28T11:29:48;16.63;;;7.93;;
32172;SDS011;18679;45.190;5.722;2023-02-28T11:32:50;16.15;;;7.78;;
32172;SDS011;18679;45.190;5.722;2023-02-28T11:35:51;18.55;;;8.32;;
32172;SDS011;18679;45.190;5.722;2023-02-28T11:38:58;14.43;;;7.55;;
32172;SDS011;18679;45.190;5.722;2023-02-28T11:46:15;21.05;;;7.47;;
32172;SDS011;18679;45.190;5.722;2023-02-28T11:52:52;16.10;;;7.85;;
32172;SDS011;18679;45.190;5.722;2023-02-28T12:02:55;20.20;;;7.68;;
32172;SDS011;18679;45.190;5.722;2023-02-28T12:09:44;26.83;;;8.45;;
32172;SDS011;18679;45.190;5.722;2023-02-28T12:22:50;16.92;;;7.90;;
32172;SDS011;18679;45.190;5.722;2023-02-28T12:33:03;16.65;;;7.70;;
32172;SDS011;18679;45.190;5.722;2023-02-28T12:36:09;17.23;;;7.50;;
32172;SDS011;18679;45.190;5.722;2023-02-28T12:39:20;15.45;;;7.45;;
32172;SDS011;18679;45.190;5.722;2023-02-28T12:42:28;13.75;;;6.80;;
32172;SDS011;18679;45.190;5.722;2023-02-28T12:45:43;16.98;;;6.70;;
32172;SDS011;18679;45.190;5.722;2023-02-28T12:48:57;13.13;;;6.85;;
32172;SDS011;18679;45.190;5.722;2023-02-28T12:52:05;14.40;;;6.90;;
32172;SDS011;18679;45.190;5.722;2023-02-28T12:58:47;14.65;;;7.43;;
32172;SDS011;18679;45.190;5.722;2023-02-28T13:11:50;14.90;;;7.47;;
32172;SDS011;18679;45.190;5.722;2023-02-28T13:15:07;14.05;;;6.78;;
32172;SDS011;18679;45.190;5.722;2023-02-28T13:18:27;11.57;;;6.18;;
32172;SDS011;18679;45.190;5.722;2023-02-28T13:21:42;15.75;;;7.00;;
32172;SDS011;18679;45.190;5.722;2023-02-28T13:27:51;14.38;;;6.13;;
32172;SDS011;18679;45.190;5.722;2023-02-28T13:31:04;13.32;;;7.00;;
32172;SDS011;18679;45.190;5.722;2023-02-28T13:34:12;15.05;;;6.63;;
32172;SDS011;18679;45.190;5.722;2023-02-28T13:40:29;14.60;;;7.03;;
32172;SDS011;18679;45.190;5.722;2023-02-28T13:53:33;27.08;;;10.88;;
32172;SDS011;18679;45.190;5.722;2023-02-28T13:56:52;13.93;;;7.03;;
32172;SDS011;18679;45.190;5.722;2023-02-28T14:07:03;16.83;;;5.72;;
32172;SDS011;18679;45.190;5.722;2023-02-28T14:10:05;13.25;;;6.10;;
32172;SDS011;18679;45.190;5.722;2023-02-28T14:16:45;16.13;;;6.63;;
32172;SDS011;18679;45.190;5.722;2023-02-28T14:19:47;16.05;;;6.13;;
32172;SDS011;18679;45.190;5.722;2023-02-28T14:36:10;12.15;;;6.70;;
32172;SDS011;18679;45.190;5.722;2023-02-28T14:39:22;12.10;;;6.22;;
32172;SDS011;18679;45.190;5.722;2023-02-28T14:42:33;15.77;;;6.40;;
32172;SDS011;18679;45.190;5.722;2023-02-28T14:45:37;15.15;;;6.80;;
32172;SDS011;18679;45.190;5.722;2023-02-28T14:48:39;18.88;;;7.30;;
32172;SDS011;18679;45.190;5.722;2023-02-28T14:51:40;12.15;;;6.65;;
32172;SDS011;18679;45.190;5.722;2023-02-28T14:54:41;13.57;;;6.63;;
32172;SDS011;18679;45.190;5.722;2023-02-28T14:58:00;14.23;;;6.15;;
32172;SDS011;18679;45.190;5.722;2023-02-28T15:01:09;11.15;;;5.93;;
32172;SDS011;18679;45.190;5.722;2023-02-28T15:04:12;11.18;;;6.07;;
32172;SDS011;18679;45.190;5.722;2023-02-28T15:07:27;13.18;;;6.72;;
32172;SDS011;18679;45.190;5.722;2023-02-28T15:10:28;17.55;;;6.20;;
32172;SDS011;18679;45.190;5.722;2023-02-28T15:13:38;16.05;;;7.57;;
32172;SDS011;18679;45.190;5.722;2023-02-28T15:16:43;13.73;;;5.75;;
32172;SDS011;18679;45.190;5.722;2023-02-28T15:19:50;10.63;;;6.30;;
32172;SDS011;18679;45.190;5.722;2023-02-28T15:22:53;12.27;;;5.78;;
32172;SDS011;18679;45.190;5.722;2023-02-28T15:25:56;15.43;;;7.30;;
32172;SDS011;18679;45.190;5.722;2023-02-28T15:28:59;13.27;;;7.25;;
32172;SDS011;18679;45.190;5.722;2023-02-28T15:32:25;10.98;;;5.00;;
32172;SDS011;18679;45.190;5.722;2023-02-28T15:35:31;10.43;;;5.82;;
32172;SDS011;18679;45.190;5.722;2023-02-28T15:38:34;15.75;;;7.05;;
32172;SDS011;18679;45.190;5.722;2023-02-28T15:41:37;13.70;;;6.13;;
32172;SDS011;18679;45.190;5.722;2023-02-28T15:44:38;16.10;;;6.95;;
32172;SDS011;18679;45.190;5.722;2023-02-28T15:47:39;11.70;;;6.30;;
32172;SDS011;18679;45.190;5.722;2023-02-28T15:50:40;9.82;;;5.72;;
32172;SDS011;18679;45.190;5.722;2023-02-28T15:53:51;13.77;;;7.20;;
32172;SDS011;18679;45.190;5.722;2023-02-28T15:57:01;10.40;;;5.55;;
32172;SDS011;18679;45.190;5.722;2023-02-28T16:00:11;13.63;;;6.82;;
32172;SDS011;18679;45.190;5.722;2023-02-28T16:03:22;16.77;;;5.95;;
32172;SDS011;18679;45.190;5.722;2023-02-28T16:09:36;19.00;;;7.50;;
32172;SDS011;18679;45.190;5.722;2023-02-28T16:12:38;13.95;;;6.50;;
32172;SDS011;18679;45.190;5.722;2023-02-28T16:15:41;11.15;;;6.07;;
32172;SDS011;18679;45.190;5.722;2023-02-28T16:18:44;18.60;;;6.72;;
32172;SDS011;18679;45.190;5.722;2023-02-28T16:21:45;13.07;;;6.60;;
32172;SDS011;18679;45.190;5.722;2023-02-28T16:24:46;14.07;;;6.35;;
32172;SDS011;18679;45.190;5.722;2023-02-28T16:27:48;27.65;;;6.65;;
32172;SDS011;18679;45.190;5.722;2023-02-28T16:30:51;16.30;;;7.03;;
32172;SDS011;18679;45.190;5.722;2023-02-28T16:33:53;14.98;;;6.63;;
32172;SDS011;18679;45.190;5.722;2023-02-28T16:36:54;14.45;;;6.93;;
32172;SDS011;18679;45.190;5.722;2023-02-28T16:39:55;14.45;;;6.97;;
32172;SDS011;18679;45.190;5.722;2023-02-28T16:42:57;15.98;;;7.93;;
32172;SDS011;18679;45.190;5.722;2023-02-28T16:46:00;20.20;;;7.88;;
32172;SDS011;18679;45.190;5.722;2023-02-28T16:49:03;13.77;;;6.88;;
32172;SDS011;18679;45.190;5.722;2023-02-28T16:52:04;20.85;;;6.78;;
32172;SDS011;18679;45.190;5.722;2023-02-28T16:55:06;18.85;;;7.70;;
32172;SDS011;18679;45.190;5.722;2023-02-28T16:58:10;13.48;;;7.00;;
32172;SDS011;18679;45.190;5.722;2023-02-28T17:01:15;16.63;;;8.02;;
32172;SDS011;18679;45.190;5.722;2023-02-28T17:04:16;12.80;;;6.25;;
32172;SDS011;18679;45.190;5.722;2023-02-28T17:07:18;17.30;;;7.28;;
32172;SDS011;18679;45.190;5.722;2023-02-28T17:10:20;16.48;;;6.95;;
32172;SDS011;18679;45.190;5.722;2023-02-28T17:13:23;14.45;;;7.15;;
32172;SDS011;18679;45.190;5.722;2023-02-28T17:16:30;13.63;;;7.28;;
32172;SDS011;18679;45.190;5.722;2023-02-28T17:19:36;12.98;;;6.93;;
32172;SDS011;18679;45.190;5.722;2023-02-28T17:22:38;16.25;;;6.80;;
32172;SDS011;18679;45.190;5.722;2023-02-28T17:25:39;14.30;;;6.30;;
32172;SDS011;18679;45.190;5.722;2023-02-28T17:28:40;14.48;;;6.82;;
32172;SDS011;18679;45.190;5.722;2023-02-28T17:31:41;15.32;;;7.18;;
32172;SDS011;18679;45.190;5.722;2023-02-28T17:34:42;16.25;;;6.28;;
32172;SDS011;18679;45.190;5.722;2023-02-28T17:37:44;14.18;;;7.20;;
32172;SDS011;18679;45.190;5.722;2023-02-28T17:40:45;16.20;;;6.45;;
32172;SDS011;18679;45.190;5.722;2023-02-28T17:43:46;15.43;;;6.93;;
32172;SDS011;18679;45.190;5.722;2023-02-28T17:46:47;16.15;;;7.30;;
32172;SDS011;18679;45.190;5.722;2023-02-28T17:49:49;17.00;;;7.10;;
32172;SDS011;18679;45.190;5.722;2023-02-28T17:52:50;14.88;;;7.50;;
32172;SDS011;18679;45.190;5.722;2023-02-28T17:55:51;15.15;;;6.45;;
32172;SDS011;18679;45.190;5.722;2023-02-28T17:58:53;11.07;;;6.47;;
32172;SDS011;18679;45.190;5.722;2023-02-28T18:01:55;15.23;;;7.63;;
32172;SDS011;18679;45.190;5.722;2023-02-28T18:04:56;12.77;;;6.50;;
32172;SDS011;18679;45.190;5.722;2023-02-28T18:07:58;18.48;;;7.95;;
32172;SDS011;18679;45.190;5.722;2023-02-28T18:10:58;13.73;;;6.32;;
32172;SDS011;18679;45.190;5.722;2023-02-28T18:13:59;14.45;;;7.18;;
32172;SDS011;18679;45.190;5.722;2023-02-28T18:17:01;16.33;;;7.57;;
32172;SDS011;18679;45.190;5.722;2023-02-28T18:20:02;17.38;;;6.93;;
32172;SDS011;18679;45.190;5.722;2023-02-28T18:23:04;17.15;;;7.95;;
32172;SDS011;18679;45.190;5.722;2023-02-28T18:26:06;21.60;;;6.55;;
32172;SDS011;18679;45.190;5.722;2023-02-28T18:29:08;19.20;;;8.50;;
32172;SDS011;18679;45.190;5.722;2023-02-28T18:32:15;14.57;;;6.97;;
32172;SDS011;18679;45.190;5.722;2023-02-28T18:35:16;17.02;;;5.80;;
32172;SDS011;18679;45.190;5.722;2023-02-28T18:38:33;15.57;;;6.72;;
32172;SDS011;18679;45.190;5.722;2023-02-28T18:41:34;16.38;;;7.28;;
32172;SDS011;18679;45.190;5.722;2023-02-28T18:44:36;13.55;;;6.72;;
32172;SDS011;18679;45.190;5.722;2023-02-28T18:47:37;15.27;;;5.70;;
32172;SDS011;18679;45.190;5.722;2023-02-28T18:50:41;15.57;;;7.18;;
32172;SDS011;18679;45.190;5.722;2023-02-28T18:53:43;13.15;;;6.55;;
32172;SDS011;18679;45.190;5.722;2023-02-28T18:56:55;14.07;;;7.13;;
32172;SDS011;18679;45.190;5.722;2023-02-28T19:00:00;15.23;;;6.53;;
32172;SDS011;18679;45.190;5.722;2023-02-28T19:03:01;13.52;;;6.85;;
32172;SDS011;18679;45.190;5.722;2023-02-28T19:06:22;15.63;;;6.18;;
32172;SDS011;18679;45.190;5.722;2023-02-28T19:09:30;14.00;;;7.25;;
32172;SDS011;18679;45.190;5.722;2023-02-28T19:12:32;14.55;;;6.47;;
32172;SDS011;18679;45.190;5.722;2023-02-28T19:15:34;10.02;;;5.75;;
32172;SDS011;18679;45.190;5.722;2023-02-28T19:18:35;13.85;;;5.75;;
32172;SDS011;18679;45.190;5.722;2023-02-28T19:21:36;12.52;;;6.30;;
32172;SDS011;18679;45.190;5.722;2023-02-28T19:24:37;20.33;;;7.25;;
32172;SDS011;18679;45.190;5.722;2023-02-28T19:27:41;11.63;;;6.40;;
32172;SDS011;18679;45.190;5.722;2023-02-28T19:30:46;11.23;;;6.28;;
32172;SDS011;18679;45.190;5.722;2023-02-28T19:33:48;11.02;;;6.68;;
32172;SDS011;18679;45.190;5.722;2023-02-28T19:36:55;11.32;;;5.70;;
32172;SDS011;18679;45.190;5.722;2023-02-28T19:39:58;16.52;;;5.88;;
32172;SDS011;18679;45.190;5.722;2023-02-28T19:42:59;15.90;;;6.38;;
32172;SDS011;18679;45.190;5.722;2023-02-28T19:46:03;11.55;;;5.80;;
32172;SDS011;18679;45.190;5.722;2023-02-28T19:49:04;14.27;;;6.05;;
32172;SDS011;18679;45.190;5.722;2023-02-28T19:52:05;12.13;;;5.97;;
32172;SDS011;18679;45.190;5.722;2023-02-28T19:55:08;13.95;;;6.25;;
32172;SDS011;18679;45.190;5.722;2023-02-28T19:58:13;14.02;;;5.60;;
32172;SDS011;18679;45.190;5.722;2023-02-28T20:01:14;10.15;;;6.07;;
32172;SDS011;18679;45.190;5.722;2023-02-28T20:04:22;16.63;;;6.78;;
32172;SDS011;18679;45.190;5.722;2023-02-28T20:07:24;12.30;;;5.70;;
32172;SDS011;18679;45.190;5.722;2023-02-28T20:10:26;12.55;;;6.55;;
32172;SDS011;18679;45.190;5.722;2023-02-28T20:13:27;16.70;;;5.82;;
32172;SDS011;18679;45.190;5.722;2023-02-28T20:16:28;8.60;;;5.43;;
32172;SDS011;18679;45.190;5.722;2023-02-28T20:19:30;11.77;;;6.30;;
32172;SDS011;18679;45.190;5.722;2023-02-28T20:22:33;11.45;;;5.57;;
32172;SDS011;18679;45.190;5.722;2023-02-28T20:25:38;10.77;;;5.95;;
32172;SDS011;18679;45.190;5.722;2023-02-28T20:28:41;11.63;;;6.43;;
32172;SDS011;18679;45.190;5.722;2023-02-28T20:31:43;12.63;;;5.13;;
32172;SDS011;18679;45.190;5.722;2023-02-28T20:34:44;11.15;;;5.43;;
32172;SDS011;18679;45.190;5.722;2023-02-28T20:37:48;11.10;;;5.57;;
32172;SDS011;18679;45.190;5.722;2023-02-28T20:40:52;11.18;;;6.45;;
32172;SDS011;18679;45.190;5.722;2023-02-28T20:44:00;12.57;;;5.85;;
32172;SDS011;18679;45.190;5.722;2023-02-28T20:47:06;12.38;;;6.18;;